sensor_id;sensor_type;location;lat;lon;timestamp;P1;durP1;ratioP1;P2;durP2;ratioP2
1460;SDS011;724;49.910;12.530;2023-05-10T00:01:07;11.32;;;10.73;;
1460;SDS011;724;49.910;12.530;2023-05-10T00:03:34;10.80;;;10.20;;
1460;SDS011;724;49.910;12.530;2023-05-10T00:06:00;10.80;;;10.20;;
1460;SDS011;724;49.910;12.530;2023-05-10T00:08:27;11.50;;;10.90;;
1460;SDS011;724;49.910;12.530;2023-05-10T00:10:54;11.18;;;10.57;;
1460;SDS011;724;49.910;12.530;2023-05-10T00:13:22;11.32;;;10.73;;
1460;SDS011;724;49.910;12.530;2023-05-10T00:15:49;11.40;;;10.80;;
1460;SDS011;724;49.910;12.530;2023-05-10T00:18:18;11.65;;;11.05;;
1460;SDS011;724;49.910;12.530;2023-05-10T00:20:44;11.60;;;11.00;;
1460;SDS011;724;49.910;12.530;2023-05-10T00:23:11;11.73;;;11.13;;
1460;SDS011;724;49.910;12.530;2023-05-10T00:25:40;11.85;;;11.25;;
1460;SDS011;724;49.910;12.530;2023-05-10T00:28:06;11.30;;;10.70;;
1460;SDS011;724;49.910;12.530;2023-05-10T00:30:35;11.70;;;11.10;;
1460;SDS011;724;49.910;12.530;2023-05-10T00:33:01;11.93;;;11.32;;
1460;SDS011;724;49.910;12.530;2023-05-10T00:35:28;11.63;;;11.02;;
1460;SDS011;724;49.910;12.530;2023-05-10T00:37:55;11.20;;;10.60;;
1460;SDS011;724;49.910;12.530;2023-05-10T00:40:22;11.50;;;10.90;;
1460;SDS011;724;49.910;12.530;2023-05-10T00:42:49;12.00;;;11.40;;
1460;SDS011;724;49.910;12.530;2023-05-10T00:45:16;11.90;;;11.30;;
1460;SDS011;724;49.910;12.530;2023-05-10T00:47:44;11.75;;;11.15;;
1460;SDS011;724;49.910;12.530;2023-05-10T00:50:11;11.68;;;11.07;;
1460;SDS011;724;49.910;12.530;2023-05-10T00:52:38;11.80;;;11.20;;
1460;SDS011;724;49.910;12.530;2023-05-10T00:55:06;11.35;;;10.75;;
1460;SDS011;724;49.910;12.530;2023-05-10T00:57:33;11.50;;;10.90;;
1460;SDS011;724;49.910;12.530;2023-05-10T01:00:02;11.20;;;10.60;;
1460;SDS011;724;49.910;12.530;2023-05-10T01:02:30;11.88;;;11.27;;
1460;SDS011;724;49.910;12.530;2023-05-10T01:04:58;11.25;;;10.65;;
1460;SDS011;724;49.910;12.530;2023-05-10T01:07:26;11.38;;;10.77;;
1460;SDS011;724;49.910;12.530;2023-05-10T01:09:53;11.20;;;10.60;;
1460;SDS011;724;49.910;12.530;2023-05-10T01:12:19;11.40;;;10.80;;
1460;SDS011;724;49.910;12.530;2023-05-10T01:14:46;11.30;;;10.70;;
1460;SDS011;724;49.910;12.530;2023-05-10T01:17:15;11.40;;;10.80;;
1460;SDS011;724;49.910;12.530;2023-05-10T01:19:44;11.63;;;11.02;;
1460;SDS011;724;49.910;12.530;2023-05-10T01:22:17;11.10;;;10.50;;
1460;SDS011;724;49.910;12.530;2023-05-10T01:28:29;10.60;;;10.00;;
1460;SDS011;724;49.910;12.530;2023-05-10T01:31:15;10.10;;;9.60;;
1460;SDS011;724;49.910;12.530;2023-05-10T01:33:51;10.98;;;10.38;;
1460;SDS011;724;49.910;12.530;2023-05-10T01:36:23;10.60;;;10.00;;
1460;SDS011;724;49.910;12.530;2023-05-10T01:38:58;10.10;;;9.60;;
1460;SDS011;724;49.910;12.530;2023-05-10T01:41:30;10.60;;;10.00;;
1460;SDS011;724;49.910;12.530;2023-05-10T01:44:09;10.80;;;10.20;;
1460;SDS011;724;49.910;12.530;2023-05-10T01:46:42;10.90;;;10.30;;
1460;SDS011;724;49.910;12.530;2023-05-10T01:49:13;11.00;;;10.40;;
1460;SDS011;724;49.910;12.530;2023-05-10T01:51:47;10.40;;;9.90;;
1460;SDS011;724;49.910;12.530;2023-05-10T01:54:19;11.10;;;10.50;;
1460;SDS011;724;49.910;12.530;2023-05-10T01:56:48;11.10;;;10.50;;
1460;SDS011;724;49.910;12.530;2023-05-10T01:59:21;11.20;;;10.60;;
1460;SDS011;724;49.910;12.530;2023-05-10T02:01:51;11.50;;;10.90;;
1460;SDS011;724;49.910;12.530;2023-05-10T02:04:20;11.00;;;10.40;;
1460;SDS011;724;49.910;12.530;2023-05-10T02:06:49;11.20;;;10.60;;
1460;SDS011;724;49.910;12.530;2023-05-10T02:09:19;11.18;;;10.57;;
1460;SDS011;724;49.910;12.530;2023-05-10T02:11:47;11.00;;;10.40;;
1460;SDS011;724;49.910;12.530;2023-05-10T02:14:15;11.00;;;10.40;;
1460;SDS011;724;49.910;12.530;2023-05-10T02:16:44;11.30;;;10.70;;
1460;SDS011;724;49.910;12.530;2023-05-10T02:19:12;11.80;;;11.20;;
1460;SDS011;724;49.910;12.530;2023-05-10T02:21:42;11.50;;;10.90;;
1460;SDS011;724;49.910;12.530;2023-05-10T02:24:10;11.40;;;10.80;;
1460;SDS011;724;49.910;12.530;2023-05-10T02:26:38;11.60;;;11.00;;
1460;SDS011;724;49.910;12.530;2023-05-10T02:29:07;11.32;;;10.73;;
1460;SDS011;724;49.910;12.530;2023-05-10T02:31:37;11.25;;;10.65;;
1460;SDS011;724;49.910;12.530;2023-05-10T02:34:05;11.20;;;10.60;;
1460;SDS011;724;49.910;12.530;2023-05-10T02:36:34;11.30;;;10.70;;
1460;SDS011;724;49.910;12.530;2023-05-10T02:39:03;11.20;;;10.60;;
1460;SDS011;724;49.910;12.530;2023-05-10T02:41:34;11.68;;;11.07;;
1460;SDS011;724;49.910;12.530;2023-05-10T02:44:02;11.00;;;10.40;;
1460;SDS011;724;49.910;12.530;2023-05-10T02:46:32;10.35;;;9.85;;
1460;SDS011;724;49.910;12.530;2023-05-10T02:48:59;11.20;;;10.60;;
1460;SDS011;724;49.910;12.530;2023-05-10T02:51:30;11.00;;;10.40;;
1460;SDS011;724;49.910;12.530;2023-05-10T02:54:04;11.30;;;10.70;;
1460;SDS011;724;49.910;12.530;2023-05-10T02:56:38;11.00;;;10.40;;
1460;SDS011;724;49.910;12.530;2023-05-10T02:59:08;11.40;;;10.80;;
1460;SDS011;724;49.910;12.530;2023-05-10T03:01:36;11.50;;;10.90;;
1460;SDS011;724;49.910;12.530;2023-05-10T03:04:03;11.60;;;11.00;;
1460;SDS011;724;49.910;12.530;2023-05-10T03:06:30;10.75;;;10.15;;
1460;SDS011;724;49.910;12.530;2023-05-10T03:08:56;10.20;;;9.70;;
1460;SDS011;724;49.910;12.530;2023-05-10T03:11:28;10.50;;;9.95;;
1460;SDS011;724;49.910;12.530;2023-05-10T03:14:10;11.30;;;10.70;;
1460;SDS011;724;49.910;12.530;2023-05-10T03:16:48;10.80;;;10.20;;
1460;SDS011;724;49.910;12.530;2023-05-10T03:19:22;11.10;;;10.50;;
1460;SDS011;724;49.910;12.530;2023-05-10T03:21:53;10.80;;;10.20;;
1460;SDS011;724;49.910;12.530;2023-05-10T03:24:21;10.75;;;10.15;;
1460;SDS011;724;49.910;12.530;2023-05-10T03:26:54;11.27;;;10.68;;
1460;SDS011;724;49.910;12.530;2023-05-10T03:29:22;11.70;;;11.10;;
1460;SDS011;724;49.910;12.530;2023-05-10T03:31:51;12.20;;;11.60;;
1460;SDS011;724;49.910;12.530;2023-05-10T03:34:22;11.80;;;11.20;;
1460;SDS011;724;49.910;12.530;2023-05-10T03:36:50;12.00;;;11.40;;
1460;SDS011;724;49.910;12.530;2023-05-10T03:39:17;12.50;;;11.90;;
1460;SDS011;724;49.910;12.530;2023-05-10T03:41:44;11.70;;;11.10;;
1460;SDS011;724;49.910;12.530;2023-05-10T03:44:12;12.02;;;11.43;;
1460;SDS011;724;49.910;12.530;2023-05-10T03:46:39;11.52;;;10.93;;
1460;SDS011;724;49.910;12.530;2023-05-10T03:49:05;11.70;;;11.10;;
1460;SDS011;724;49.910;12.530;2023-05-10T03:51:34;11.60;;;11.00;;
1460;SDS011;724;49.910;12.530;2023-05-10T03:54:00;11.30;;;10.70;;
1460;SDS011;724;49.910;12.530;2023-05-10T03:56:27;11.40;;;10.80;;
1460;SDS011;724;49.910;12.530;2023-05-10T03:58:55;11.32;;;10.73;;
1460;SDS011;724;49.910;12.530;2023-05-10T04:01:23;10.90;;;10.30;;
1460;SDS011;724;49.910;12.530;2023-05-10T04:03:49;11.38;;;10.77;;
1460;SDS011;724;49.910;12.530;2023-05-10T04:06:16;11.20;;;10.60;;
1460;SDS011;724;49.910;12.530;2023-05-10T04:08:43;11.10;;;10.50;;
1460;SDS011;724;49.910;12.530;2023-05-10T04:11:11;10.80;;;10.20;;
1460;SDS011;724;49.910;12.530;2023-05-10T04:13:38;10.90;;;10.30;;
1460;SDS011;724;49.910;12.530;2023-05-10T04:16:05;10.30;;;9.80;;
1460;SDS011;724;49.910;12.530;2023-05-10T04:18:34;10.40;;;9.90;;
1460;SDS011;724;49.910;12.530;2023-05-10T04:21:00;10.45;;;9.93;;
1460;SDS011;724;49.910;12.530;2023-05-10T04:23:27;10.60;;;10.00;;
1460;SDS011;724;49.910;12.530;2023-05-10T04:25:58;10.20;;;9.70;;
1460;SDS011;724;49.910;12.530;2023-05-10T04:28:26;9.90;;;9.40;;
1460;SDS011;724;49.910;12.530;2023-05-10T04:30:53;10.40;;;9.90;;
1460;SDS011;724;49.910;12.530;2023-05-10T04:33:28;10.80;;;10.20;;
1460;SDS011;724;49.910;12.530;2023-05-10T04:35:57;10.80;;;10.20;;
1460;SDS011;724;49.910;12.530;2023-05-10T04:38:24;10.40;;;9.90;;
1460;SDS011;724;49.910;12.530;2023-05-10T04:40:51;11.00;;;10.40;;
1460;SDS011;724;49.910;12.530;2023-05-10T04:43:18;10.90;;;10.30;;
1460;SDS011;724;49.910;12.530;2023-05-10T04:45:45;11.30;;;10.70;;
1460;SDS011;724;49.910;12.530;2023-05-10T04:48:12;11.00;;;10.40;;
1460;SDS011;724;49.910;12.530;2023-05-10T04:50:39;10.80;;;10.20;;
1460;SDS011;724;49.910;12.530;2023-05-10T04:53:07;10.65;;;10.05;;
1460;SDS011;724;49.910;12.530;2023-05-10T04:55:34;10.35;;;9.85;;
1460;SDS011;724;49.910;12.530;2023-05-10T04:58:01;10.40;;;9.90;;
1460;SDS011;724;49.910;12.530;2023-05-10T05:00:28;10.90;;;10.30;;
1460;SDS011;724;49.910;12.530;2023-05-10T05:02:55;10.30;;;9.80;;
1460;SDS011;724;49.910;12.530;2023-05-10T05:05:22;10.25;;;9.75;;
1460;SDS011;724;49.910;12.530;2023-05-10T05:07:49;10.27;;;9.77;;
1460;SDS011;724;49.910;12.530;2023-05-10T05:10:17;10.20;;;9.70;;
1460;SDS011;724;49.910;12.530;2023-05-10T05:12:44;10.10;;;9.60;;
1460;SDS011;724;49.910;12.530;2023-05-10T05:15:11;10.80;;;10.20;;
1460;SDS011;724;49.910;12.530;2023-05-10T05:17:37;10.40;;;9.90;;
1460;SDS011;724;49.910;12.530;2023-05-10T05:20:05;10.30;;;9.80;;
1460;SDS011;724;49.910;12.530;2023-05-10T05:22:33;9.90;;;9.40;;
1460;SDS011;724;49.910;12.530;2023-05-10T05:24:59;10.10;;;9.60;;
1460;SDS011;724;49.910;12.530;2023-05-10T05:27:28;10.30;;;9.80;;
1460;SDS011;724;49.910;12.530;2023-05-10T05:29:56;10.00;;;9.50;;
1460;SDS011;724;49.910;12.530;2023-05-10T05:32:23;10.30;;;9.80;;
1460;SDS011;724;49.910;12.530;2023-05-10T05:34:50;9.60;;;9.10;;
1460;SDS011;724;49.910;12.530;2023-05-10T05:37:18;9.70;;;9.20;;
1460;SDS011;724;49.910;12.530;2023-05-10T05:39:47;9.80;;;9.30;;
1460;SDS011;724;49.910;12.530;2023-05-10T05:42:14;9.70;;;9.20;;
1460;SDS011;724;49.910;12.530;2023-05-10T05:44:44;9.50;;;9.00;;
1460;SDS011;724;49.910;12.530;2023-05-10T05:47:11;9.50;;;9.00;;
1460;SDS011;724;49.910;12.530;2023-05-10T05:49:38;9.90;;;9.40;;
1460;SDS011;724;49.910;12.530;2023-05-10T05:52:05;10.10;;;9.60;;
1460;SDS011;724;49.910;12.530;2023-05-10T05:54:32;9.88;;;9.38;;
1460;SDS011;724;49.910;12.530;2023-05-10T05:56:59;10.00;;;9.50;;
1460;SDS011;724;49.910;12.530;2023-05-10T05:59:26;9.50;;;9.00;;
1460;SDS011;724;49.910;12.530;2023-05-10T06:01:55;9.20;;;8.70;;
1460;SDS011;724;49.910;12.530;2023-05-10T06:04:21;9.10;;;8.60;;
1460;SDS011;724;49.910;12.530;2023-05-10T06:06:48;8.70;;;8.20;;
1460;SDS011;724;49.910;12.530;2023-05-10T06:09:16;8.10;;;7.70;;
1460;SDS011;724;49.910;12.530;2023-05-10T06:11:43;8.10;;;7.70;;
1460;SDS011;724;49.910;12.530;2023-05-10T06:14:10;8.15;;;7.75;;
1460;SDS011;724;49.910;12.530;2023-05-10T06:16:37;7.63;;;7.22;;
1460;SDS011;724;49.910;12.530;2023-05-10T06:19:05;7.50;;;7.10;;
1460;SDS011;724;49.910;12.530;2023-05-10T06:21:32;7.68;;;7.28;;
1460;SDS011;724;49.910;12.530;2023-05-10T06:23:58;7.50;;;7.10;;
1460;SDS011;724;49.910;12.530;2023-05-10T06:26:25;7.30;;;6.90;;
1460;SDS011;724;49.910;12.530;2023-05-10T06:28:52;7.80;;;7.40;;
1460;SDS011;724;49.910;12.530;2023-05-10T06:31:19;7.60;;;7.20;;
1460;SDS011;724;49.910;12.530;2023-05-10T06:33:45;7.80;;;7.40;;
1460;SDS011;724;49.910;12.530;2023-05-10T06:36:14;7.25;;;6.85;;
1460;SDS011;724;49.910;12.530;2023-05-10T06:38:40;7.90;;;7.50;;
1460;SDS011;724;49.910;12.530;2023-05-10T06:41:07;7.80;;;7.40;;
1460;SDS011;724;49.910;12.530;2023-05-10T06:43:34;7.70;;;7.30;;
1460;SDS011;724;49.910;12.530;2023-05-10T06:46:02;7.85;;;7.45;;
1460;SDS011;724;49.910;12.530;2023-05-10T06:48:28;7.40;;;7.00;;
1460;SDS011;724;49.910;12.530;2023-05-10T06:50:55;7.40;;;7.00;;
1460;SDS011;724;49.910;12.530;2023-05-10T06:53:23;6.90;;;6.50;;
1460;SDS011;724;49.910;12.530;2023-05-10T06:55:50;6.85;;;6.45;;
1460;SDS011;724;49.910;12.530;2023-05-10T06:58:17;6.20;;;5.90;;
1460;SDS011;724;49.910;12.530;2023-05-10T07:00:43;6.00;;;5.70;;
1460;SDS011;724;49.910;12.530;2023-05-10T07:03:11;5.70;;;5.40;;
1460;SDS011;724;49.910;12.530;2023-05-10T07:05:38;5.00;;;4.70;;
1460;SDS011;724;49.910;12.530;2023-05-10T07:08:05;5.15;;;4.85;;
1460;SDS011;724;49.910;12.530;2023-05-10T07:10:33;5.10;;;4.80;;
1460;SDS011;724;49.910;12.530;2023-05-10T07:13:01;4.65;;;4.35;;
1460;SDS011;724;49.910;12.530;2023-05-10T07:15:27;4.72;;;4.43;;
1460;SDS011;724;49.910;12.530;2023-05-10T07:17:54;4.57;;;4.28;;
1460;SDS011;724;49.910;12.530;2023-05-10T07:20:21;4.50;;;4.20;;
1460;SDS011;724;49.910;12.530;2023-05-10T07:22:48;4.70;;;4.40;;
1460;SDS011;724;49.910;12.530;2023-05-10T07:25:15;5.20;;;4.90;;
1460;SDS011;724;49.910;12.530;2023-05-10T07:27:43;5.20;;;4.90;;
1460;SDS011;724;49.910;12.530;2023-05-10T07:30:10;4.97;;;4.68;;
1460;SDS011;724;49.910;12.530;2023-05-10T07:32:38;4.80;;;4.50;;
1460;SDS011;724;49.910;12.530;2023-05-10T07:35:07;4.70;;;4.40;;
1460;SDS011;724;49.910;12.530;2023-05-10T07:37:34;5.20;;;4.90;;
1460;SDS011;724;49.910;12.530;2023-05-10T07:40:01;4.80;;;4.50;;
1460;SDS011;724;49.910;12.530;2023-05-10T07:42:28;4.57;;;4.28;;
1460;SDS011;724;49.910;12.530;2023-05-10T07:44:56;4.60;;;4.30;;
1460;SDS011;724;49.910;12.530;2023-05-10T07:47:22;4.50;;;4.20;;
1460;SDS011;724;49.910;12.530;2023-05-10T07:49:49;3.90;;;3.70;;
1460;SDS011;724;49.910;12.530;2023-05-10T07:52:16;3.58;;;3.38;;
1460;SDS011;724;49.910;12.530;2023-05-10T07:54:43;3.00;;;2.80;;
1460;SDS011;724;49.910;12.530;2023-05-10T07:57:10;2.78;;;2.58;;
1460;SDS011;724;49.910;12.530;2023-05-10T07:59:39;2.70;;;2.50;;
1460;SDS011;724;49.910;12.530;2023-05-10T08:02:07;2.80;;;2.60;;
1460;SDS011;724;49.910;12.530;2023-05-10T08:04:34;2.60;;;2.40;;
1460;SDS011;724;49.910;12.530;2023-05-10T08:07:01;3.10;;;2.90;;
1460;SDS011;724;49.910;12.530;2023-05-10T08:09:28;3.20;;;3.00;;
1460;SDS011;724;49.910;12.530;2023-05-10T08:11:54;3.22;;;3.03;;
1460;SDS011;724;49.910;12.530;2023-05-10T08:14:21;3.08;;;2.88;;
1460;SDS011;724;49.910;12.530;2023-05-10T08:16:48;2.90;;;2.70;;
1460;SDS011;724;49.910;12.530;2023-05-10T08:19:16;2.90;;;2.70;;
1460;SDS011;724;49.910;12.530;2023-05-10T08:21:44;3.00;;;2.80;;
1460;SDS011;724;49.910;12.530;2023-05-10T08:24:11;3.30;;;3.10;;
1460;SDS011;724;49.910;12.530;2023-05-10T08:26:38;3.40;;;3.20;;
1460;SDS011;724;49.910;12.530;2023-05-10T08:29:05;3.20;;;3.00;;
1460;SDS011;724;49.910;12.530;2023-05-10T08:31:32;2.50;;;2.30;;
1460;SDS011;724;49.910;12.530;2023-05-10T08:33:58;2.83;;;2.63;;
1460;SDS011;724;49.910;12.530;2023-05-10T08:36:26;2.70;;;2.50;;
1460;SDS011;724;49.910;12.530;2023-05-10T08:38:53;2.80;;;2.60;;
1460;SDS011;724;49.910;12.530;2023-05-10T08:41:20;2.28;;;2.08;;
1460;SDS011;724;49.910;12.530;2023-05-10T08:43:49;2.30;;;2.10;;
1460;SDS011;724;49.910;12.530;2023-05-10T08:46:17;2.22;;;2.03;;
1460;SDS011;724;49.910;12.530;2023-05-10T08:48:45;2.20;;;2.00;;
1460;SDS011;724;49.910;12.530;2023-05-10T08:51:14;2.20;;;2.00;;
1460;SDS011;724;49.910;12.530;2023-05-10T08:53:44;2.35;;;2.15;;
1460;SDS011;724;49.910;12.530;2023-05-10T08:56:11;2.60;;;2.40;;
1460;SDS011;724;49.910;12.530;2023-05-10T08:58:40;3.30;;;3.10;;
1460;SDS011;724;49.910;12.530;2023-05-10T09:01:07;4.28;;;4.00;;
1460;SDS011;724;49.910;12.530;2023-05-10T09:03:36;4.55;;;4.25;;
1460;SDS011;724;49.910;12.530;2023-05-10T09:06:05;4.70;;;4.40;;
1460;SDS011;724;49.910;12.530;2023-05-10T09:08:33;5.20;;;4.90;;
1460;SDS011;724;49.910;12.530;2023-05-10T09:11:04;5.10;;;4.80;;
1460;SDS011;724;49.910;12.530;2023-05-10T09:13:31;5.00;;;4.70;;
1460;SDS011;724;49.910;12.530;2023-05-10T09:15:58;4.35;;;4.05;;
1460;SDS011;724;49.910;12.530;2023-05-10T09:18:26;3.97;;;3.78;;
1460;SDS011;724;49.910;12.530;2023-05-10T09:20:53;4.00;;;3.80;;
1460;SDS011;724;49.910;12.530;2023-05-10T09:23:20;4.50;;;4.20;;
1460;SDS011;724;49.910;12.530;2023-05-10T09:25:48;4.47;;;4.18;;
1460;SDS011;724;49.910;12.530;2023-05-10T09:28:32;4.40;;;4.10;;
1460;SDS011;724;49.910;12.530;2023-05-10T09:30:59;4.70;;;4.40;;
1460;SDS011;724;49.910;12.530;2023-05-10T09:33:26;5.10;;;4.80;;
1460;SDS011;724;49.910;12.530;2023-05-10T09:35:53;4.75;;;4.45;;
1460;SDS011;724;49.910;12.530;2023-05-10T09:38:19;5.25;;;4.95;;
1460;SDS011;724;49.910;12.530;2023-05-10T09:40:50;5.40;;;5.10;;
1460;SDS011;724;49.910;12.530;2023-05-10T09:43:19;5.20;;;4.90;;
1460;SDS011;724;49.910;12.530;2023-05-10T09:45:48;5.53;;;5.22;;
1460;SDS011;724;49.910;12.530;2023-05-10T09:48:15;6.00;;;5.70;;
1460;SDS011;724;49.910;12.530;2023-05-10T09:50:42;6.80;;;6.40;;
1460;SDS011;724;49.910;12.530;2023-05-10T09:53:09;7.00;;;6.60;;
1460;SDS011;724;49.910;12.530;2023-05-10T09:55:42;6.70;;;6.30;;
1460;SDS011;724;49.910;12.530;2023-05-10T09:58:10;6.00;;;5.70;;
1460;SDS011;724;49.910;12.530;2023-05-10T10:00:38;5.60;;;5.30;;
1460;SDS011;724;49.910;12.530;2023-05-10T10:03:12;5.50;;;5.20;;
1460;SDS011;724;49.910;12.530;2023-05-10T10:05:42;5.80;;;5.50;;
1460;SDS011;724;49.910;12.530;2023-05-10T10:08:09;5.80;;;5.50;;
1460;SDS011;724;49.910;12.530;2023-05-10T10:10:37;6.57;;;6.18;;
1460;SDS011;724;49.910;12.530;2023-05-10T10:13:05;6.20;;;5.90;;
1460;SDS011;724;49.910;12.530;2023-05-10T10:15:32;6.70;;;6.30;;
1460;SDS011;724;49.910;12.530;2023-05-10T10:18:00;6.70;;;6.30;;
1460;SDS011;724;49.910;12.530;2023-05-10T10:20:29;7.13;;;6.73;;
1460;SDS011;724;49.910;12.530;2023-05-10T10:22:57;7.30;;;6.90;;
1460;SDS011;724;49.910;12.530;2023-05-10T10:25:23;7.40;;;7.00;;
1460;SDS011;724;49.910;12.530;2023-05-10T10:28:07;7.90;;;7.50;;
1460;SDS011;724;49.910;12.530;2023-05-10T10:30:41;7.28;;;6.88;;
1460;SDS011;724;49.910;12.530;2023-05-10T10:33:30;7.40;;;7.00;;
1460;SDS011;724;49.910;12.530;2023-05-10T10:36:06;7.20;;;6.80;;
1460;SDS011;724;49.910;12.530;2023-05-10T10:38:37;7.50;;;7.10;;
1460;SDS011;724;49.910;12.530;2023-05-10T10:41:27;7.10;;;6.70;;
1460;SDS011;724;49.910;12.530;2023-05-10T10:47:21;7.57;;;7.17;;
1460;SDS011;724;49.910;12.530;2023-05-10T10:49:50;7.50;;;7.10;;
1460;SDS011;724;49.910;12.530;2023-05-10T10:52:24;7.60;;;7.20;;
1460;SDS011;724;49.910;12.530;2023-05-10T10:54:54;7.20;;;6.80;;
1460;SDS011;724;49.910;12.530;2023-05-10T10:57:24;7.50;;;7.10;;
1460;SDS011;724;49.910;12.530;2023-05-10T10:59:54;7.22;;;6.82;;
1460;SDS011;724;49.910;12.530;2023-05-10T11:02:48;7.70;;;7.30;;
1460;SDS011;724;49.910;12.530;2023-05-10T11:05:23;7.67;;;7.27;;
1460;SDS011;724;49.910;12.530;2023-05-10T11:08:16;7.80;;;7.40;;
1460;SDS011;724;49.910;12.530;2023-05-10T11:10:51;8.27;;;7.87;;
1460;SDS011;724;49.910;12.530;2023-05-10T11:13:29;8.10;;;7.70;;
1460;SDS011;724;49.910;12.530;2023-05-10T11:15:57;8.80;;;8.30;;
1460;SDS011;724;49.910;12.530;2023-05-10T11:18:25;8.50;;;8.00;;
1460;SDS011;724;49.910;12.530;2023-05-10T11:20:55;7.90;;;7.50;;
1460;SDS011;724;49.910;12.530;2023-05-10T11:23:30;8.30;;;7.90;;
1460;SDS011;724;49.910;12.530;2023-05-10T11:25:59;8.80;;;8.30;;
1460;SDS011;724;49.910;12.530;2023-05-10T11:28:26;9.00;;;8.50;;
1460;SDS011;724;49.910;12.530;2023-05-10T11:30:53;8.83;;;8.33;;
1460;SDS011;724;49.910;12.530;2023-05-10T11:33:21;9.10;;;8.60;;
1460;SDS011;724;49.910;12.530;2023-05-10T11:35:48;8.27;;;7.87;;
1460;SDS011;724;49.910;12.530;2023-05-10T11:38:14;7.73;;;7.33;;
1460;SDS011;724;49.910;12.530;2023-05-10T11:40:43;6.90;;;6.50;;
1460;SDS011;724;49.910;12.530;2023-05-10T11:43:09;6.60;;;6.20;;
1460;SDS011;724;49.910;12.530;2023-05-10T11:45:37;6.13;;;5.83;;
1460;SDS011;724;49.910;12.530;2023-05-10T11:48:05;5.60;;;5.30;;
1460;SDS011;724;49.910;12.530;2023-05-10T11:50:33;6.20;;;5.90;;
1460;SDS011;724;49.910;12.530;2023-05-10T11:53:00;6.00;;;5.70;;
1460;SDS011;724;49.910;12.530;2023-05-10T11:55:26;5.70;;;5.40;;
1460;SDS011;724;49.910;12.530;2023-05-10T11:58:00;5.90;;;5.60;;
1460;SDS011;724;49.910;12.530;2023-05-10T12:00:28;6.40;;;6.00;;
1460;SDS011;724;49.910;12.530;2023-05-10T12:02:55;6.00;;;5.70;;
1460;SDS011;724;49.910;12.530;2023-05-10T12:05:22;5.50;;;5.20;;
1460;SDS011;724;49.910;12.530;2023-05-10T12:07:49;5.67;;;5.37;;
1460;SDS011;724;49.910;12.530;2023-05-10T12:10:17;5.40;;;5.10;;
1460;SDS011;724;49.910;12.530;2023-05-10T12:12:51;5.00;;;4.70;;
1460;SDS011;724;49.910;12.530;2023-05-10T12:15:20;5.20;;;4.90;;
1460;SDS011;724;49.910;12.530;2023-05-10T12:17:49;4.70;;;4.40;;
1460;SDS011;724;49.910;12.530;2023-05-10T12:20:17;5.00;;;4.70;;
1460;SDS011;724;49.910;12.530;2023-05-10T12:22:45;5.13;;;4.83;;
1460;SDS011;724;49.910;12.530;2023-05-10T12:25:16;5.40;;;5.10;;
1460;SDS011;724;49.910;12.530;2023-05-10T12:27:50;5.40;;;5.10;;
1460;SDS011;724;49.910;12.530;2023-05-10T12:30:23;4.70;;;4.40;;
1460;SDS011;724;49.910;12.530;2023-05-10T12:32:50;4.30;;;4.00;;
1460;SDS011;724;49.910;12.530;2023-05-10T12:35:17;3.50;;;3.30;;
1460;SDS011;724;49.910;12.530;2023-05-10T12:37:46;3.60;;;3.40;;
1460;SDS011;724;49.910;12.530;2023-05-10T12:40:15;4.10;;;3.90;;
1460;SDS011;724;49.910;12.530;2023-05-10T12:42:41;4.60;;;4.30;;
1460;SDS011;724;49.910;12.530;2023-05-10T12:45:10;3.90;;;3.70;;
1460;SDS011;724;49.910;12.530;2023-05-10T12:47:39;3.30;;;3.10;;
1460;SDS011;724;49.910;12.530;2023-05-10T12:50:06;2.90;;;2.70;;
1460;SDS011;724;49.910;12.530;2023-05-10T12:52:34;2.70;;;2.50;;
1460;SDS011;724;49.910;12.530;2023-05-10T12:55:01;2.50;;;2.30;;
1460;SDS011;724;49.910;12.530;2023-05-10T12:57:30;2.80;;;2.60;;
1460;SDS011;724;49.910;12.530;2023-05-10T12:59:57;2.80;;;2.60;;
1460;SDS011;724;49.910;12.530;2023-05-10T13:02:23;3.00;;;2.80;;
1460;SDS011;724;49.910;12.530;2023-05-10T13:04:52;3.00;;;2.80;;
1460;SDS011;724;49.910;12.530;2023-05-10T13:07:19;2.30;;;2.10;;
1460;SDS011;724;49.910;12.530;2023-05-10T13:09:46;2.33;;;2.13;;
1460;SDS011;724;49.910;12.530;2023-05-10T13:12:12;2.60;;;2.40;;
1460;SDS011;724;49.910;12.530;2023-05-10T13:14:39;2.50;;;2.30;;
1460;SDS011;724;49.910;12.530;2023-05-10T13:17:06;2.70;;;2.50;;
1460;SDS011;724;49.910;12.530;2023-05-10T13:19:33;2.78;;;2.58;;
1460;SDS011;724;49.910;12.530;2023-05-10T13:22:02;2.60;;;2.40;;
1460;SDS011;724;49.910;12.530;2023-05-10T13:24:29;3.10;;;2.90;;
1460;SDS011;724;49.910;12.530;2023-05-10T13:26:56;3.00;;;2.80;;
1460;SDS011;724;49.910;12.530;2023-05-10T13:29:22;3.70;;;3.50;;
1460;SDS011;724;49.910;12.530;2023-05-10T13:31:49;4.50;;;4.20;;
1460;SDS011;724;49.910;12.530;2023-05-10T13:34:16;4.90;;;4.60;;
1460;SDS011;724;49.910;12.530;2023-05-10T13:36:45;5.60;;;5.30;;
1460;SDS011;724;49.910;12.530;2023-05-10T13:39:15;5.90;;;5.60;;
1460;SDS011;724;49.910;12.530;2023-05-10T13:41:42;5.40;;;5.10;;
1460;SDS011;724;49.910;12.530;2023-05-10T13:44:09;4.83;;;4.53;;
1460;SDS011;724;49.910;12.530;2023-05-10T13:46:38;3.80;;;3.60;;
1460;SDS011;724;49.910;12.530;2023-05-10T13:49:04;2.80;;;2.60;;
1460;SDS011;724;49.910;12.530;2023-05-10T13:51:31;2.30;;;2.10;;
1460;SDS011;724;49.910;12.530;2023-05-10T13:53:59;1.50;;;1.40;;
1460;SDS011;724;49.910;12.530;2023-05-10T13:56:27;1.20;;;1.10;;
1460;SDS011;724;49.910;12.530;2023-05-10T13:58:54;0.90;;;0.80;;
1460;SDS011;724;49.910;12.530;2023-05-10T14:01:22;0.63;;;0.53;;
1460;SDS011;724;49.910;12.530;2023-05-10T14:03:48;0.50;;;0.40;;
1460;SDS011;724;49.910;12.530;2023-05-10T14:06:15;0.50;;;0.40;;
1460;SDS011;724;49.910;12.530;2023-05-10T14:08:42;0.50;;;0.40;;
1460;SDS011;724;49.910;12.530;2023-05-10T14:11:09;0.70;;;0.60;;
1460;SDS011;724;49.910;12.530;2023-05-10T14:13:37;0.70;;;0.60;;
1460;SDS011;724;49.910;12.530;2023-05-10T14:16:05;0.90;;;0.80;;
1460;SDS011;724;49.910;12.530;2023-05-10T14:18:34;1.20;;;1.10;;
1460;SDS011;724;49.910;12.530;2023-05-10T14:21:01;1.40;;;1.30;;
1460;SDS011;724;49.910;12.530;2023-05-10T14:23:29;1.20;;;1.10;;
1460;SDS011;724;49.910;12.530;2023-05-10T14:25:56;1.13;;;1.03;;
1460;SDS011;724;49.910;12.530;2023-05-10T14:28:23;1.10;;;1.00;;
1460;SDS011;724;49.910;12.530;2023-05-10T14:30:51;1.70;;;1.60;;
1460;SDS011;724;49.910;12.530;2023-05-10T14:33:19;2.20;;;2.00;;
1460;SDS011;724;49.910;12.530;2023-05-10T14:35:46;3.10;;;2.90;;
1460;SDS011;724;49.910;12.530;2023-05-10T14:38:13;3.90;;;3.70;;
1460;SDS011;724;49.910;12.530;2023-05-10T14:40:40;3.77;;;3.57;;
1460;SDS011;724;49.910;12.530;2023-05-10T14:43:07;4.40;;;4.10;;
1460;SDS011;724;49.910;12.530;2023-05-10T14:45:34;4.50;;;4.20;;
1460;SDS011;724;49.910;12.530;2023-05-10T14:48:02;4.60;;;4.30;;
1460;SDS011;724;49.910;12.530;2023-05-10T14:50:30;4.73;;;4.43;;
1460;SDS011;724;49.910;12.530;2023-05-10T14:52:57;4.90;;;4.60;;
1460;SDS011;724;49.910;12.530;2023-05-10T14:55:24;5.30;;;5.00;;
1460;SDS011;724;49.910;12.530;2023-05-10T14:57:51;6.00;;;5.70;;
1460;SDS011;724;49.910;12.530;2023-05-10T15:00:20;6.83;;;6.43;;
1460;SDS011;724;49.910;12.530;2023-05-10T15:02:47;6.60;;;6.20;;
1460;SDS011;724;49.910;12.530;2023-05-10T15:05:15;7.03;;;6.63;;
1460;SDS011;724;49.910;12.530;2023-05-10T15:07:42;7.00;;;6.60;;
1460;SDS011;724;49.910;12.530;2023-05-10T15:10:09;7.20;;;6.80;;
1460;SDS011;724;49.910;12.530;2023-05-10T15:12:36;7.00;;;6.60;;
1460;SDS011;724;49.910;12.530;2023-05-10T15:15:03;7.20;;;6.80;;
1460;SDS011;724;49.910;12.530;2023-05-10T15:17:31;6.47;;;6.07;;
1460;SDS011;724;49.910;12.530;2023-05-10T15:19:58;6.13;;;5.83;;